Sagrada, Missouri
Current Conditions -  °F | °C
As of 10:15 AM on Wednesday 26 Nov 2014 (Local Time) from KH21 Reporting Station
Broken Clouds Broken Clouds  
Wind Chill: 29°   Ceiling: 400
Heat Index: 34°   Visibility: 10mi
Dew Point: 34°   Wind: 6mph
Humidity: 100%   Direction: 210°SSW
Pressure: 29.98"   Gusts: NA
Location:  38.1656°N, 93.1481°W
Report Text: KH21 261615Z AUTO 21005KT 10SM BKN004 BKN030 BKN037 01/01 A2998 RMK AO2
Loading
Personal Weather Stations






























Interactive Weather Map New forecast layout! Learn more

10-Day Weather Forecast

Advertisements
Track Severe Weather on mobile